Carnival Splendor — 3EUS — position and weather

sailwx.info

Track history (hours):
 
Tides and Currents Weather Stations Pressure Air Temp Water Temp Dewpoint Dewpoint Depression Visibility Wind Speed Wind Dir Waves Ship Positions

Carnival Splendor

Last reported at 2016-Aug-28 00:32 UTC. Time now 2016-Aug-29 13:04 UTC.
Position N 26°11' W 079°17'.

Length 289 m; draft 8.3 m.

Type: Ship. MMSI: 372808000.

Date/timePositionNaut miles runAvg speedWind from/ knotsBaromVisibWave heightAir tempDewpointWater temp
2016-Aug-28 00:32N 26°11' W 079°17'1616.8
2016-Aug-27 23:33N 26°03' W 079°33'1717.4
2016-Aug-27 22:33N 25°54' W 079°49'1616.0
2016-Aug-27 21:33N 25°45' W 080°04'6 5.6
2016-Aug-27 20:33N 25°47' W 080°10'0 0.1
2016-Aug-27 19:33N 25°47' W 080°10'0 0.1
2016-Aug-27 18:32N 25°47' W 080°10'0 0.0
2016-Aug-27 17:32N 25°47' W 080°10'0 0.0
2016-Aug-27 16:31N 25°47' W 080°10'0 0.0
2016-Aug-27 15:31N 25°47' W 080°10'0 0.0
2016-Aug-27 14:31N 25°47' W 080°10'0 0.0
2016-Aug-27 13:33N 25°47' W 080°10'0 0.0
2016-Aug-27 12:33N 25°47' W 080°10'0 0.0
2016-Aug-27 11:32N 25°47' W 080°10'0 0.1
2016-Aug-27 10:32N 25°47' W 080°10'0 0.0
2016-Aug-27 09:28N 25°47' W 080°10'0 0.0
2016-Aug-27 08:31N 25°47' W 080°10'1 1.5
2016-Aug-27 07:33N 25°46' W 080°09'1010.4
2016-Aug-27 06:34N 25°43' W 079°58'9216.5
2016-Aug-27 01:00N 24°18' W 080°36'4514.8 360 / 181012.0 5.4 1.029.024.030.0
2016-Aug-26 22:00N 23°48' W 081°12'36816.4 090 / 201010.0 5.4 1.030.025.030.0
2016-Aug-25 23:33N 20°39' W 086°53'1211.2
2016-Aug-25 22:29N 20°29' W 086°59'0 0.0
2016-Aug-25 21:32N 20°29' W 086°59'0 0.0
2016-Aug-25 20:31N 20°29' W 086°59'0 0.0
2016-Aug-25 19:31N 20°29' W 086°59'0 0.0
2016-Aug-25 18:31N 20°29' W 086°59'0 0.0
2016-Aug-25 17:33N 20°29' W 086°59'0 0.0
2016-Aug-25 16:33N 20°29' W 086°59'0 0.0
2016-Aug-25 15:32N 20°29' W 086°59'0 0.0
2016-Aug-25 14:32N 20°29' W 086°59'0 0.2
2016-Aug-25 13:34N 20°29' W 086°59'9 8.5
2016-Aug-25 12:33N 20°36' W 086°55'  
2016-Aug-22 01:33N 24°37' W 079°41'5317.4
2016-Aug-21 22:31N 25°29' W 079°53'1516.2
2016-Aug-21 21:33N 25°43' W 079°60'10 9.6
2016-Aug-21 20:33N 25°47' W 080°10'0 0.4
2016-Aug-21 19:33N 25°47' W 080°10'0 0.0
2016-Aug-21 18:33N 25°47' W 080°10'0 0.0
2016-Aug-21 17:32N 25°47' W 080°10'0 0.0
2016-Aug-21 16:32N 25°47' W 080°10'0 0.0
2016-Aug-21 15:31N 25°47' W 080°10'0 0.0
2016-Aug-21 14:31N 25°47' W 080°10'0 0.0
2016-Aug-21 13:31N 25°47' W 080°10'0 0.0
2016-Aug-21 12:33N 25°47' W 080°10'0 0.0
2016-Aug-21 11:33N 25°47' W 080°10'0 0.0
2016-Aug-21 10:32N 25°47' W 080°10'1 0.8
2016-Aug-21 09:34N 25°47' W 080°11'8 7.6
2016-Aug-21 08:34N 25°47' W 080°02'1110.8
2016-Aug-21 07:34N 25°38' W 079°55'1616.0
2016-Aug-21 06:34N 25°23' W 079°49'  
Track history (hours):
 
Tides and Currents Weather Stations Pressure Air Temp Water Temp Dewpoint Dewpoint Depression Visibility Wind Speed Wind Dir Waves Ship Positions

Carnival Splendor

Last reported at 2016-Aug-28 00:32 UTC. Time now 2016-Aug-29 13:04 UTC.
Position N 26°11' W 079°17'.

Length 289 m; draft 8.3 m.

Type: Ship. MMSI: 372808000.

Date/timePositionNaut miles runAvg speedWind from/ knotsBaromVisibWave heightAir tempDewpointWater temp
2016-Aug-28 00:32N 26°11' W 079°17'1616.8
2016-Aug-27 23:33N 26°03' W 079°33'1717.4
2016-Aug-27 22:33N 25°54' W 079°49'1616.0
2016-Aug-27 21:33N 25°45' W 080°04'6 5.6
2016-Aug-27 20:33N 25°47' W 080°10'0 0.1
2016-Aug-27 19:33N 25°47' W 080°10'0 0.1
2016-Aug-27 18:32N 25°47' W 080°10'0 0.0
2016-Aug-27 17:32N 25°47' W 080°10'0 0.0
2016-Aug-27 16:31N 25°47' W 080°10'0 0.0
2016-Aug-27 15:31N 25°47' W 080°10'0 0.0
2016-Aug-27 14:31N 25°47' W 080°10'0 0.0
2016-Aug-27 13:33N 25°47' W 080°10'0 0.0
2016-Aug-27 12:33N 25°47' W 080°10'0 0.0
2016-Aug-27 11:32N 25°47' W 080°10'0 0.1
2016-Aug-27 10:32N 25°47' W 080°10'0 0.0
2016-Aug-27 09:28N 25°47' W 080°10'0 0.0
2016-Aug-27 08:31N 25°47' W 080°10'1 1.5
2016-Aug-27 07:33N 25°46' W 080°09'1010.4
2016-Aug-27 06:34N 25°43' W 079°58'9216.5
2016-Aug-27 01:00N 24°18' W 080°36'4514.8 360 / 181012.0 5.4 1.029.024.030.0
2016-Aug-26 22:00N 23°48' W 081°12'36816.4 090 / 201010.0 5.4 1.030.025.030.0
2016-Aug-25 23:33N 20°39' W 086°53'1211.2
2016-Aug-25 22:29N 20°29' W 086°59'0 0.0
2016-Aug-25 21:32N 20°29' W 086°59'0 0.0
2016-Aug-25 20:31N 20°29' W 086°59'0 0.0
2016-Aug-25 19:31N 20°29' W 086°59'0 0.0
2016-Aug-25 18:31N 20°29' W 086°59'0 0.0
2016-Aug-25 17:33N 20°29' W 086°59'0 0.0
2016-Aug-25 16:33N 20°29' W 086°59'0 0.0
2016-Aug-25 15:32N 20°29' W 086°59'0 0.0
2016-Aug-25 14:32N 20°29' W 086°59'0 0.2
2016-Aug-25 13:34N 20°29' W 086°59'9 8.5
2016-Aug-25 12:33N 20°36' W 086°55'  
2016-Aug-22 01:33N 24°37' W 079°41'5317.4
2016-Aug-21 22:31N 25°29' W 079°53'1516.2
2016-Aug-21 21:33N 25°43' W 079°60'10 9.6
2016-Aug-21 20:33N 25°47' W 080°10'0 0.4
2016-Aug-21 19:33N 25°47' W 080°10'0 0.0
2016-Aug-21 18:33N 25°47' W 080°10'0 0.0
2016-Aug-21 17:32N 25°47' W 080°10'0 0.0
2016-Aug-21 16:32N 25°47' W 080°10'0 0.0
2016-Aug-21 15:31N 25°47' W 080°10'0 0.0
2016-Aug-21 14:31N 25°47' W 080°10'0 0.0
2016-Aug-21 13:31N 25°47' W 080°10'0 0.0
2016-Aug-21 12:33N 25°47' W 080°10'0 0.0
2016-Aug-21 11:33N 25°47' W 080°10'0 0.0
2016-Aug-21 10:32N 25°47' W 080°10'1 0.8
2016-Aug-21 09:34N 25°47' W 080°11'8 7.6
2016-Aug-21 08:34N 25°47' W 080°02'1110.8
2016-Aug-21 07:34N 25°38' W 079°55'1616.0
2016-Aug-21 06:34N 25°23' W 079°49'  

Dump ship's entire track history